Lorton, Nebraska
Current Conditions -  °F | °C
As of 10:35 PM on Saturday 25 Oct 2014 (Local Time) from KAFK Reporting Station
Clear Clear  
Wind Chill: 59°   Ceiling: Unl
Heat Index: 59°   Visibility: 10mi
Dew Point: 39°   Wind: 7mph
Humidity: 49%   Direction: 80°E
Pressure: 30.02"   Gusts: NA
Location:  40.6°N, 96.02°W
Report Text: KAFK 260335Z AUTO 08006KT 10SM CLR 15/04 A3002 RMK AO2 T01480041
Loading
Personal Weather Stations






























Interactive Weather Map
Tropical Storm Tracking
New forecast layout! Learn more

10-Day Weather Forecast

Advertisements
Track Severe Weather on mobile